Time;durP1;ratioP1;P1;durP2;ratioP2;P2;SDS_P1;SDS_P2;PMS_P1;PMS_P2;Temp;Humidity;BMP_temperature;BMP_pressure;BME280_temperature;BME280_humidity;BME280_pressure;Samples;Min_cycle;Max_cycle;Signal;HPM_P1;HPM_P2
2022/06/21 00:02:03;;;;;;;3.45;2.10;;;;;;;14.26;70.49;101827.75;4883339;29;20225;-79
2022/06/21 00:04:29;;;;;;;3.85;2.00;;;;;;;14.24;70.31;101826.91;4865806;29;20045;-79
2022/06/21 00:06:57;;;;;;;5.80;2.40;;;;;;;14.23;70.37;101822.59;4865584;29;20036;-80
2022/06/21 00:09:23;;;;;;;3.08;2.13;;;;;;;14.20;70.48;101820.91;4880294;29;20356;-79
2022/06/21 00:11:49;;;;;;;4.63;2.15;;;;;;;14.18;70.59;101821.91;4883358;29;20044;-79
2022/06/21 00:14:14;;;;;;;2.80;2.13;;;;;;;14.17;70.62;101825.44;4882070;29;20053;-79
2022/06/21 00:16:40;;;;;;;7.55;2.72;;;;;;;14.15;70.40;101817.63;4865612;29;20201;-80
2022/06/21 00:19:06;;;;;;;3.45;1.83;;;;;;;14.13;70.46;101823.88;4882234;29;20193;-79
2022/06/21 00:21:37;;;;;;;2.55;2.33;;;;;;;14.11;70.53;101810.75;4866278;29;20123;-79
2022/06/21 00:24:03;;;;;;;4.63;2.30;;;;;;;14.08;70.31;101805.63;4882118;29;20044;-79
2022/06/21 00:26:30;;;;;;;3.70;2.60;;;;;;;14.06;70.38;101804.84;4887906;29;20049;-79
2022/06/21 00:28:56;;;;;;;4.30;2.30;;;;;;;14.05;70.30;101807.53;4880554;29;20228;-79
2022/06/21 00:31:26;;;;;;;4.05;2.38;;;;;;;14.04;70.44;101805.78;4884630;29;20036;-79
2022/06/21 00:33:51;;;;;;;4.25;2.38;;;;;;;14.01;70.80;101801.53;4873767;29;20073;-79
2022/06/21 00:36:27;;;;;;;4.47;2.22;;;;;;;13.98;70.52;101791.94;4886639;29;20047;-80
2022/06/21 00:38:54;;;;;;;4.40;2.38;;;;;;;13.97;70.60;101792.00;4900034;29;20423;-79
2022/06/21 00:41:34;;;;;;;2.85;2.28;;;;;;;13.95;70.68;101791.22;4881900;29;20336;-79
2022/06/21 00:44:03;;;;;;;5.20;2.40;;;;;;;13.93;70.79;101793.91;4881362;29;20033;-79
2022/06/21 00:46:41;;;;;;;2.47;1.95;;;;;;;13.92;70.72;101792.19;4866313;29;20044;-79
2022/06/21 00:49:16;;;;;;;4.25;2.13;;;;;;;13.90;70.68;101801.94;4881691;29;20426;-79
2022/06/21 00:51:42;;;;;;;3.55;2.10;;;;;;;13.89;70.52;101794.09;4885271;29;20375;-79
2022/06/21 00:54:26;;;;;;;2.97;2.60;;;;;;;13.88;70.72;101789.75;4866314;29;20033;-80
2022/06/21 00:57:02;;;;;;;5.38;3.35;;;;;;;13.86;71.04;101781.03;4880140;29;20037;-79
2022/06/21 00:59:31;;;;;;;7.60;2.50;;;;;;;13.83;70.85;101782.03;4882084;29;20375;-79
2022/06/21 01:05:23;;;;;;;4.40;2.55;;;;;;;13.80;70.91;101766.34;4818624;29;20060;-79
2022/06/21 01:07:53;;;;;;;3.38;2.30;;;;;;;13.78;71.12;101771.66;4851418;29;20296;-79
2022/06/21 01:10:18;;;;;;;3.00;2.05;;;;;;;13.76;70.79;101768.25;4865568;29;20225;-80
2022/06/21 01:12:58;;;;;;;4.00;2.67;;;;;;;13.74;71.02;101767.44;4881407;29;20041;-79
2022/06/21 01:15:31;;;;;;;2.25;2.05;;;;;;;13.71;71.04;101762.28;4881079;29;20109;-79
2022/06/21 01:18:00;;;;;;;5.95;2.25;;;;;;;13.71;71.35;101767.56;4879941;29;20072;-79
2022/06/21 01:20:30;;;;;;;3.25;2.53;;;;;;;13.69;71.22;101769.41;4883209;29;20025;-79
2022/06/21 01:23:11;;;;;;;7.72;2.40;;;;;;;13.68;71.04;101766.81;4883879;29;20009;-80
2022/06/21 01:26:03;;;;;;;5.07;2.33;;;;;;;13.65;71.35;101773.06;4886669;29;20131;-80
2022/06/21 01:28:30;;;;;;;4.00;2.60;;;;;;;13.62;71.30;101774.06;4884728;29;20116;-80
2022/06/21 01:30:57;;;;;;;6.60;2.40;;;;;;;13.61;71.28;101771.50;4894522;29;20177;-80
2022/06/21 01:33:36;;;;;;;3.42;2.58;;;;;;;13.59;71.12;101763.66;4887204;29;20040;-80
2022/06/21 01:36:06;;;;;;;4.07;2.38;;;;;;;13.57;71.53;101765.47;4902186;29;20039;-79
2022/06/21 01:38:55;;;;;;;6.80;2.72;;;;;;;13.55;71.58;101775.22;4902083;29;20394;-79
2022/06/21 01:41:46;;;;;;;4.75;2.50;;;;;;;13.54;71.28;101775.28;4885795;29;20029;-79
2022/06/21 01:44:26;;;;;;;4.32;3.08;;;;;;;13.51;71.47;101770.97;4884588;29;20045;-80
2022/06/21 01:46:52;;;;;;;5.78;2.58;;;;;;;13.50;71.59;101774.53;4884272;29;20122;-80
2022/06/21 01:49:23;;;;;;;3.58;2.35;;;;;;;13.50;71.60;101776.28;4893956;29;20036;-80
2022/06/21 01:51:56;;;;;;;4.68;2.53;;;;;;;13.48;71.77;101770.22;4892387;29;20049;-80
2022/06/21 01:54:24;;;;;;;2.92;2.50;;;;;;;13.46;71.48;101772.91;4883296;29;20433;-80
2022/06/21 01:56:51;;;;;;;5.35;2.42;;;;;;;13.43;71.74;101768.63;4884792;29;20272;-80
2022/06/21 01:59:30;;;;;;;2.85;2.65;;;;;;;13.43;71.71;101773.03;4884887;29;20497;-79
2022/06/21 02:02:04;;;;;;;3.95;2.50;;;;;;;13.41;71.75;101765.19;4886315;29;20060;-80
2022/06/21 02:04:34;;;;;;;3.60;2.83;;;;;;;13.39;72.21;101761.78;4867556;29;20124;-80
2022/06/21 02:07:05;;;;;;;5.70;3.22;;;;;;;13.38;72.44;101765.31;4884268;29;20224;-79
2022/06/21 02:09:38;;;;;;;5.43;3.13;;;;;;;13.37;72.58;101765.34;4884530;29;20048;-80
2022/06/21 02:12:06;;;;;;;4.25;2.70;;;;;;;13.38;72.72;101772.34;4868278;29;20327;-79
2022/06/21 02:14:38;;;;;;;2.72;2.50;;;;;;;13.37;72.51;101770.63;4884055;29;20332;-79
2022/06/21 02:17:15;;;;;;;5.00;2.42;;;;;;;13.37;72.23;101768.00;4899529;29;20037;-80
2022/06/21 02:20:01;;;;;;;4.10;3.15;;;;;;;13.36;72.30;101767.16;4892620;29;20049;-79
2022/06/21 02:22:29;;;;;;;3.35;2.70;;;;;;;13.34;72.32;101750.56;4890371;29;20100;-79
2022/06/21 02:24:55;;;;;;;3.33;3.00;;;;;;;13.33;72.55;101747.97;4902743;29;20048;-79
2022/06/21 02:27:24;;;;;;;4.85;3.03;;;;;;;13.33;72.70;101747.97;4859670;29;20251;-79
2022/06/21 02:29:52;;;;;;;3.15;2.85;;;;;;;13.33;72.87;101740.09;4883917;29;20117;-80
2022/06/21 02:32:29;;;;;;;6.68;3.15;;;;;;;13.32;72.90;101733.97;4884189;29;20184;-80
2022/06/21 02:35:00;;;;;;;6.72;2.90;;;;;;;13.33;73.39;101722.53;4883789;29;20075;-80
2022/06/21 02:37:28;;;;;;;6.03;3.13;;;;;;;13.32;73.71;101707.66;4882423;29;20033;-80
2022/06/21 02:39:55;;;;;;;5.88;2.88;;;;;;;13.31;73.92;101710.34;4883815;29;20257;-80
2022/06/21 02:42:26;;;;;;;4.07;2.75;;;;;;;13.30;73.67;101698.06;4885056;29;20029;-79
2022/06/21 02:44:56;;;;;;;7.55;3.50;;;;;;;13.31;73.54;101699.84;4883443;29;20033;-80
2022/06/21 02:47:31;;;;;;;9.05;3.70;;;;;;;13.28;74.03;101694.66;4883676;29;20371;-80
2022/06/21 02:50:06;;;;;;;6.72;3.28;;;;;;;13.27;74.32;101680.66;4884090;29;20096;-79
2022/06/21 02:52:41;;;;;;;8.02;3.50;;;;;;;13.24;74.64;101686.03;4884627;29;20275;-79
2022/06/21 02:55:25;;;;;;;7.65;3.70;;;;;;;13.22;74.73;101693.13;4883298;29;20097;-80
2022/06/21 02:58:25;;;;;;;5.70;3.38;;;;;;;13.20;74.76;101694.94;4882295;29;20308;-80
2022/06/21 03:00:52;;;;;;;11.23;3.90;;;;;;;13.21;74.73;101688.78;4866578;29;20316;-80
2022/06/21 03:03:24;;;;;;;5.93;3.88;;;;;;;13.22;74.81;101691.38;4876243;29;20054;-80
2022/06/21 03:05:56;;;;;;;5.13;3.60;;;;;;;13.22;74.53;101698.38;4879755;29;20056;-79
2022/06/21 03:08:22;;;;;;;3.40;3.10;;;;;;;13.22;74.43;101711.53;4883904;29;20305;-79
2022/06/21 03:10:50;;;;;;;4.75;3.30;;;;;;;13.23;74.17;101715.88;4882041;29;20036;-79
2022/06/21 03:13:24;;;;;;;4.30;3.10;;;;;;;13.23;74.10;101719.38;4871826;29;20040;-79
2022/06/21 03:16:00;;;;;;;4.57;3.47;;;;;;;13.23;73.88;101718.53;4883912;29;20028;-80
2022/06/21 03:18:31;;;;;;;3.67;3.33;;;;;;;13.21;73.55;101715.94;4885692;29;20385;-79
2022/06/21 03:20:59;;;;;;;5.22;3.28;;;;;;;13.20;73.40;101714.22;4891831;29;20028;-79
2022/06/21 03:23:24;;;;;;;3.45;3.15;;;;;;;13.18;73.57;101716.03;4882580;29;20033;-79
2022/06/21 03:25:58;;;;;;;5.32;3.63;;;;;;;13.18;73.28;101715.19;4864638;29;20215;-80
2022/06/21 03:28:36;;;;;;;4.53;2.92;;;;;;;13.16;73.26;101704.72;4881512;29;20047;-80
2022/06/21 03:31:05;;;;;;;5.50;3.20;;;;;;;13.14;73.46;101703.94;4881639;29;20025;-80
2022/06/21 03:33:32;;;;;;;5.18;3.45;;;;;;;13.13;73.13;101696.09;4879582;29;20281;-79
2022/06/21 03:35:58;;;;;;;4.32;3.38;;;;;;;13.11;73.52;101693.53;4865779;29;20356;-80
2022/06/21 03:38:24;;;;;;;6.15;3.90;;;;;;;13.09;74.05;101689.25;4866539;29;20045;-79
2022/06/21 03:43:47;;;;;;;5.63;3.70;;;;;;;13.06;74.47;101672.66;4880170;29;20067;-80
2022/06/21 03:46:20;;;;;;;6.80;4.15;;;;;;;13.04;74.90;101671.00;4874547;29;20115;-79
2022/06/21 03:48:56;;;;;;;6.70;4.03;;;;;;;13.04;75.22;101666.63;4881537;29;20350;-80
2022/06/21 03:51:44;;;;;;;5.90;4.20;;;;;;;13.06;75.07;101669.16;4880939;29;20053;-79
2022/06/21 03:54:15;;;;;;;5.82;3.80;;;;;;;13.05;75.09;101662.22;4879401;29;20482;-80
2022/06/21 03:56:53;;;;;;;6.60;4.22;;;;;;;13.04;74.95;101656.09;4882864;29;20248;-79
2022/06/21 03:59:27;;;;;;;7.07;4.37;;;;;;;13.02;75.35;101650.03;4879201;29;20056;-79
2022/06/21 04:02:11;;;;;;;8.43;4.63;;;;;;;13.00;75.98;101643.13;4881099;29;20033;-79
2022/06/21 04:04:50;;;;;;;10.35;5.00;;;;;;;12.99;76.15;101647.53;4871919;29;20230;-79
2022/06/21 04:07:32;;;;;;;7.20;3.90;;;;;;;13.00;75.99;101648.38;4882069;29;20049;-79
2022/06/21 04:10:18;;;;;;;7.55;4.20;;;;;;;13.01;75.79;101655.34;4863934;29;20304;-79
2022/06/21 04:12:59;;;;;;;8.07;4.38;;;;;;;13.01;75.59;101658.84;4864159;29;20130;-79
2022/06/21 04:15:31;;;;;;;7.78;4.13;;;;;;;13.02;75.30;101668.44;4880425;29;20155;-80
2022/06/21 04:18:06;;;;;;;6.75;3.50;;;;;;;13.02;74.98;101668.44;4882017;29;20320;-79
2022/06/21 04:20:45;;;;;;;5.93;3.90;;;;;;;13.03;74.98;101659.63;4881388;29;20396;-79
2022/06/21 04:23:24;;;;;;;7.55;3.88;;;;;;;13.03;74.72;101653.53;4863013;29;20111;-79
2022/06/21 04:26:01;;;;;;;4.93;4.05;;;;;;;13.03;74.63;101649.13;4878903;29;20241;-80
2022/06/21 04:28:40;;;;;;;7.47;4.30;;;;;;;13.03;74.82;101646.47;4864589;29;20051;-79
2022/06/21 04:31:23;;;;;;;7.60;4.78;;;;;;;13.04;75.31;101655.22;4880050;29;20037;-79
2022/06/21 04:34:17;;;;;;;5.13;4.20;;;;;;;13.05;75.38;101660.44;4880188;29;20251;-79
2022/06/21 04:36:50;;;;;;;7.65;4.90;;;;;;;13.04;75.82;101660.47;4879987;29;20087;-79
2022/06/21 04:39:25;;;;;;;7.20;4.43;;;;;;;13.05;75.84;101659.56;4864878;29;20049;-79
2022/06/21 04:42:10;;;;;;;5.75;5.00;;;;;;;13.04;76.25;101657.84;4878727;29;20060;-79
2022/06/21 04:44:51;;;;;;;7.60;4.70;;;;;;;13.05;76.29;101662.22;4880043;29;20036;-79
2022/06/21 04:47:42;;;;;;;4.68;4.28;;;;;;;13.06;76.39;101654.25;4880132;29;20033;-80
2022/06/21 04:50:28;;;;;;;10.18;5.82;;;;;;;13.05;76.66;101644.66;4879951;29;20072;-80
2022/06/21 04:53:04;;;;;;;6.15;5.05;;;;;;;13.05;77.03;101646.44;4879967;29;20047;-79
2022/06/21 04:55:50;;;;;;;9.30;4.25;;;;;;;13.07;77.11;101649.84;4878337;29;20051;-79
2022/06/21 04:58:16;;;;;;;4.30;3.90;;;;;;;13.07;76.51;101652.47;4880906;29;20387;-79
2022/06/21 05:00:41;;;;;;;4.93;3.72;;;;;;;13.10;76.64;101649.75;4881608;29;20037;-80
2022/06/21 05:03:20;;;;;;;4.82;3.65;;;;;;;13.10;76.06;101643.59;4878609;29;20044;-79
2022/06/21 05:05:46;;;;;;;3.75;3.45;;;;;;;13.11;76.22;101654.06;4898761;29;20363;-80
2022/06/21 05:08:19;;;;;;;4.00;3.58;;;;;;;13.14;76.02;101656.59;4869421;29;20335;-79
2022/06/21 05:10:47;;;;;;;5.00;4.25;;;;;;;13.14;76.62;101653.97;4866616;29;20252;-80
2022/06/21 05:13:21;;;;;;;6.65;5.30;;;;;;;13.14;77.46;101656.59;4886839;29;20258;-80
2022/06/21 05:15:47;;;;;;;16.92;5.55;;;;;;;13.11;78.71;101656.69;4862960;29;20029;-80
2022/06/21 05:18:20;;;;;;;8.05;4.45;;;;;;;13.13;78.92;101654.03;4863230;29;20041;-79
2022/06/21 05:20:59;;;;;;;5.40;4.63;;;;;;;13.12;79.50;101663.69;4867507;29;20035;-79
2022/06/21 05:23:25;;;;;;;;;;;;;;;13.15;78.96;101663.59;4880043;29;20085;-79
2022/06/21 05:25:52;;;;;;;9.70;4.43;;;;;;;13.16;78.90;101665.28;4879651;29;19927;-80
2022/06/21 05:28:22;;;;;;;12.20;4.53;;;;;;;13.18;79.25;101662.59;4863178;29;20033;-80
2022/06/21 05:30:54;;;;;;;14.68;4.20;;;;;;;13.14;80.34;101664.47;4883173;29;20048;-79
2022/06/21 05:33:32;;;;;;;14.10;4.97;;;;;;;13.14;80.20;101672.38;4872427;29;20317;-80
2022/06/21 05:35:58;;;;;;;10.45;4.10;;;;;;;13.12;80.64;101665.47;4879672;29;20036;-79
2022/06/21 05:38:27;;;;;;;15.57;4.85;;;;;;;13.11;81.17;101663.75;4847828;29;20044;-80
2022/06/21 05:40:59;;;;;;;10.80;5.50;;;;;;;13.11;81.11;101679.53;4879274;29;20048;-79
2022/06/21 05:43:45;;;;;;;7.88;4.70;;;;;;;13.13;81.17;101682.94;4879637;29;20269;-80
2022/06/21 05:46:22;;;;;;;6.65;3.75;;;;;;;13.17;80.94;101684.53;4877019;29;20037;-80
2022/06/21 05:48:47;;;;;;;8.25;5.45;;;;;;;13.16;81.40;101681.06;4879037;29;20081;-79
2022/06/21 05:51:19;;;;;;;6.65;4.57;;;;;;;13.20;81.30;101685.28;4866956;29;20537;-79
2022/06/21 05:53:49;;;;;;;8.52;4.70;;;;;;;13.20;81.24;101689.69;4877369;29;20332;-80
2022/06/21 05:56:21;;;;;;;8.13;4.25;;;;;;;13.23;81.06;101698.31;4880905;29;20044;-80
2022/06/21 05:58:53;;;;;;;5.70;3.75;;;;;;;13.28;80.64;101698.16;4880932;29;20085;-79
2022/06/21 06:01:25;;;;;;;11.13;5.07;;;;;;;13.29;80.61;101702.50;4879348;29;20261;-80
2022/06/21 06:04:05;;;;;;;7.68;3.85;;;;;;;13.34;80.10;101697.94;4879404;29;20084;-79
2022/06/21 06:06:35;;;;;;;3.75;3.45;;;;;;;13.38;79.80;101699.53;4878568;29;20052;-79
2022/06/21 06:09:09;;;;;;;3.90;3.35;;;;;;;13.41;79.61;101698.56;4879910;29;20045;-79
2022/06/21 06:11:59;;;;;;;4.53;3.35;;;;;;;13.44;79.13;101693.16;4875121;29;20132;-79
2022/06/21 06:14:31;;;;;;;5.35;3.50;;;;;;;13.46;78.86;101699.22;4878821;29;20320;-80
2022/06/21 06:17:00;;;;;;;6.63;3.83;;;;;;;13.48;78.70;101707.94;4881183;29;20037;-80
2022/06/21 06:19:46;;;;;;;5.40;3.70;;;;;;;13.50;78.59;101721.91;4882681;29;20040;-80
2022/06/21 06:22:24;;;;;;;3.03;2.72;;;;;;;13.52;78.08;101722.69;4882654;29;20355;-79
2022/06/21 06:24:59;;;;;;;4.70;2.92;;;;;;;13.52;78.18;101722.69;4885555;29;20043;-81
2022/06/21 06:27:45;;;;;;;4.80;2.85;;;;;;;13.54;77.65;101726.13;4893986;29;20028;-80
2022/06/21 06:30:14;;;;;;;3.70;3.25;;;;;;;13.56;77.61;101732.16;4867747;29;20047;-80
2022/06/21 06:32:44;;;;;;;6.05;3.67;;;;;;;13.58;77.99;101729.50;4875083;29;20037;-80
2022/06/21 06:35:23;;;;;;;3.40;3.10;;;;;;;13.60;77.55;101732.91;4878908;29;20092;-80
2022/06/21 06:37:49;;;;;;;3.78;3.42;;;;;;;13.59;77.71;101721.53;4872833;29;20036;-80
2022/06/21 06:40:29;;;;;;;6.22;3.50;;;;;;;13.61;78.83;101718.84;4849974;29;20396;-79
2022/06/21 06:43:04;;;;;;;3.13;2.80;;;;;;;13.63;78.35;101728.38;4876339;29;20249;-80
2022/06/21 06:45:33;;;;;;;3.88;2.70;;;;;;;13.65;78.64;101725.69;4880081;29;20032;-79
2022/06/21 06:48:04;;;;;;;8.82;3.35;;;;;;;13.67;78.79;101731.75;4878907;29;20324;-80
2022/06/21 06:50:37;;;;;;;5.70;3.28;;;;;;;13.68;79.16;101730.84;4877796;29;20207;-79
2022/06/21 06:53:15;;;;;;;4.25;2.60;;;;;;;13.72;79.06;101737.69;4882241;29;20099;-79
2022/06/21 06:55:50;;;;;;;9.00;3.30;;;;;;;13.76;79.04;101738.44;4879869;29;20044;-80
2022/06/21 06:58:36;;;;;;;7.28;3.40;;;;;;;13.76;79.09;101731.38;4857949;29;20056;-80
2022/06/21 07:01:13;;;;;;;4.35;3.05;;;;;;;13.78;79.27;101721.66;4877841;29;20240;-79
2022/06/21 07:03:42;;;;;;;8.07;3.20;;;;;;;13.82;79.01;101728.53;4854698;29;20337;-79
2022/06/21 07:06:19;;;;;;;4.40;2.70;;;;;;;13.86;78.71;101731.91;4874830;29;20048;-79
2022/06/21 07:08:58;;;;;;;7.32;2.92;;;;;;;13.90;78.53;101724.69;4860785;29;20132;-79
2022/06/21 07:11:31;;;;;;;3.88;2.60;;;;;;;13.93;78.31;101724.59;4878067;29;20047;-79
2022/06/21 07:14:00;;;;;;;5.03;2.55;;;;;;;13.94;78.33;101727.16;4876043;29;20057;-80
2022/06/21 07:16:29;;;;;;;3.88;3.13;;;;;;;13.96;77.68;101730.59;4886376;29;20332;-80
2022/06/21 07:18:58;;;;;;;4.18;2.67;;;;;;;13.98;77.79;101727.91;4877907;29;20052;-81
2022/06/21 07:21:24;;;;;;;5.55;3.53;;;;;;;14.01;78.40;101727.78;4880825;29;20070;-80
2022/06/21 07:23:54;;;;;;;4.03;2.55;;;;;;;14.04;78.41;101722.38;4877625;29;20217;-81
2022/06/21 07:26:34;;;;;;;5.07;3.10;;;;;;;14.06;78.29;101720.56;4873660;29;20041;-80
2022/06/21 07:29:34;;;;;;;4.72;2.65;;;;;;;14.11;78.30;101723.81;4881462;29;20264;-79
2022/06/21 07:32:10;;;;;;;6.90;2.95;;;;;;;14.13;78.25;101718.50;4866189;29;20049;-80
2022/06/21 07:34:43;;;;;;;8.98;3.13;;;;;;;14.16;77.67;101715.75;4879650;29;20040;-79
2022/06/21 07:37:21;;;;;;;4.85;2.67;;;;;;;14.19;76.74;101711.22;4876078;29;20197;-81
2022/06/21 07:39:55;;;;;;;5.47;2.65;;;;;;;14.24;77.05;101713.63;4876424;29;20037;-80
2022/06/21 07:42:29;;;;;;;4.97;2.53;;;;;;;14.27;76.69;101713.50;4874618;29;20036;-81
2022/06/21 07:45:05;;;;;;;7.00;2.70;;;;;;;14.31;76.41;101707.19;4882601;29;20041;-80
2022/06/21 07:47:43;;;;;;;5.28;2.30;;;;;;;14.36;76.76;101701.72;4873526;29;20463;-81
2022/06/21 07:50:19;;;;;;;5.15;2.20;;;;;;;14.40;76.35;101698.88;4871325;29;20049;-80
2022/06/21 07:52:55;;;;;;;9.50;3.50;;;;;;;14.44;76.53;101691.69;4878398;29;20269;-80
2022/06/21 07:55:32;;;;;;;6.63;2.30;;;;;;;14.48;76.20;101684.50;4868696;29;20025;-80
2022/06/21 07:58:04;;;;;;;5.05;1.95;;;;;;;14.51;75.82;101687.03;4867893;29;20069;-80
2022/06/21 08:09:13;;;;;;;3.42;2.30;;;;;;;14.67;74.98;101680.19;4878513;29;20276;-80
2022/06/21 08:11:41;;;;;;;6.78;2.58;;;;;;;14.70;74.77;101672.16;4873244;29;20047;-80
2022/06/21 08:14:07;;;;;;;3.75;2.25;;;;;;;14.74;74.52;101672.88;4873571;29;20112;-80
2022/06/21 08:16:43;;;;;;;5.30;2.47;;;;;;;14.78;74.46;101677.06;4870936;29;20045;-80
2022/06/21 08:19:25;;;;;;;5.60;2.42;;;;;;;14.87;73.47;101676.66;4881486;29;20040;-80
2022/06/21 08:21:56;;;;;;;7.57;2.70;;;;;;;14.96;73.16;101670.97;4882055;29;20036;-80
2022/06/21 08:24:28;;;;;;;6.85;2.60;;;;;;;15.03;73.30;101666.28;4880237;29;20045;-80
2022/06/21 08:26:56;;;;;;;4.43;2.25;;;;;;;15.06;73.21;101668.78;4878958;29;20032;-80
2022/06/21 08:29:42;;;;;;;7.68;3.05;;;;;;;15.12;72.16;101662.34;4872415;29;20077;-80
2022/06/21 08:32:18;;;;;;;6.53;2.10;;;;;;;15.20;71.90;101659.34;4880241;29;20041;-80
2022/06/21 08:34:46;;;;;;;3.45;1.98;;;;;;;15.23;72.31;101660.06;4861982;29;20044;-80
2022/06/21 08:37:43;;;;;;;2.58;2.05;;;;;;;15.28;72.47;101663.34;4879202;29;20189;-80
2022/06/21 08:40:39;;;;;;;8.68;2.53;;;;;;;15.34;71.71;101667.47;4878020;29;20071;-79
2022/06/21 08:43:46;;;;;;;8.52;2.40;;;;;;;15.39;71.11;101660.19;4878601;29;20043;-80
2022/06/21 08:46:12;;;;;;;7.30;2.63;;;;;;;15.45;71.86;101659.03;4845211;29;20049;-80
2022/06/21 08:48:51;;;;;;;2.45;2.25;;;;;;;15.49;71.04;101661.44;4876133;29;20236;-79
2022/06/21 08:51:30;;;;;;;5.30;2.50;;;;;;;15.57;71.38;101660.22;4873978;29;20036;-80
2022/06/21 08:54:05;;;;;;;3.95;2.13;;;;;;;15.60;71.40;101660.09;4862520;29;20029;-79
2022/06/21 08:57:10;;;;;;;3.15;2.00;;;;;;;15.65;71.90;101658.06;4882164;29;20326;-79
2022/06/21 08:59:41;;;;;;;3.53;2.30;;;;;;;15.69;70.61;101651.72;4858133;29;20376;-80
2022/06/21 09:02:10;;;;;;;6.20;2.38;;;;;;;15.70;71.25;101656.06;4877120;29;20039;-80
2022/06/21 09:04:41;;;;;;;6.40;2.13;;;;;;;15.76;71.14;101655.78;4873513;29;20041;-80
2022/06/21 09:07:48;;;;;;;5.65;2.47;;;;;;;15.84;71.54;101663.31;4877245;29;20032;-80
2022/06/21 09:10:34;;;;;;;4.57;2.03;;;;;;;15.92;71.80;101655.88;4866917;29;20355;-80
2022/06/21 09:13:34;;;;;;;3.28;1.92;;;;;;;15.98;70.71;101642.34;4887325;29;20388;-82
2022/06/21 09:16:22;;;;;;;3.15;1.90;;;;;;;16.05;70.51;101646.41;4876222;29;20436;-80
2022/06/21 09:19:27;;;;;;;5.63;2.50;;;;;;;16.11;68.02;101645.22;4879164;29;20092;-80
2022/06/21 09:22:30;;;;;;;4.13;1.98;;;;;;;16.19;67.78;101644.81;4835608;29;20045;-81
2022/06/21 09:25:15;;;;;;;5.97;2.38;;;;;;;16.20;67.24;101643.91;4859894;29;20251;-80
2022/06/21 09:27:47;;;;;;;3.33;2.13;;;;;;;16.21;66.56;101637.66;4888124;29;20044;-80
2022/06/21 09:30:18;;;;;;;2.60;1.70;;;;;;;16.26;66.66;101639.16;4880513;29;20039;-80
2022/06/21 09:32:49;;;;;;;5.75;1.90;;;;;;;16.30;65.45;101643.34;4886572;29;20378;-80
2022/06/21 09:35:59;;;;;;;9.55;2.35;;;;;;;16.34;66.23;101645.84;4885996;29;20049;-81
2022/06/21 09:38:28;;;;;;;8.32;2.40;;;;;;;16.36;67.03;101636.88;4855600;29;20109;-81
2022/06/21 09:41:09;;;;;;;6.18;2.75;;;;;;;16.46;66.38;101632.84;4878723;29;20438;-80
2022/06/21 09:44:02;;;;;;;5.30;1.90;;;;;;;16.48;65.19;101638.03;4881456;29;20208;-80
2022/06/21 09:46:30;;;;;;;9.10;2.45;;;;;;;16.59;65.07;101630.41;4882866;29;20032;-80
2022/06/21 09:49:05;;;;;;;6.95;2.30;;;;;;;16.61;64.20;101631.16;4880966;29;20037;-81
2022/06/21 09:51:48;;;;;;;5.68;2.05;;;;;;;16.65;65.21;101622.13;4883610;29;20112;-81
2022/06/21 09:54:32;;;;;;;5.65;2.55;;;;;;;16.76;64.84;101618.06;4887280;29;20229;-80
2022/06/21 09:57:27;;;;;;;5.50;1.95;;;;;;;16.82;64.36;101623.00;4882349;29;20068;-80
2022/06/21 10:00:04;;;;;;;4.32;2.05;;;;;;;16.92;64.44;101626.91;4883970;29;20032;-81
2022/06/21 10:02:54;;;;;;;4.75;2.03;;;;;;;16.91;63.37;101622.53;4887118;29;20099;-80
2022/06/21 10:05:53;;;;;;;5.38;2.05;;;;;;;16.91;63.06;101621.69;4882929;29;20043;-80
2022/06/21 10:08:45;;;;;;;5.18;1.52;;;;;;;16.93;60.94;101618.00;4884131;29;20057;-81
2022/06/21 10:11:29;;;;;;;1.90;1.38;;;;;;;16.95;62.67;101621.41;4881192;29;20247;-81
2022/06/21 10:13:57;;;;;;;4.72;2.10;;;;;;;16.97;63.51;101619.56;4882154;29;20046;-81
2022/06/21 10:16:42;;;;;;;3.67;2.00;;;;;;;17.00;63.89;101619.38;4864431;29;20057;-80
2022/06/21 10:19:11;;;;;;;2.85;2.58;;;;;;;17.02;63.69;101614.00;4887004;29;20135;-81
2022/06/21 10:21:51;;;;;;;6.00;2.40;;;;;;;17.03;63.16;101610.44;4882577;29;20365;-81
2022/06/21 10:24:46;;;;;;;4.70;2.30;;;;;;;17.05;64.13;101605.91;4883900;29;20096;-80
2022/06/21 10:27:36;;;;;;;4.70;2.40;;;;;;;17.13;65.66;101608.94;4883445;29;20040;-81
2022/06/21 10:30:39;;;;;;;1.65;1.52;;;;;;;17.16;64.22;101600.84;4883556;29;20159;-80
2022/06/21 10:33:11;;;;;;;6.63;2.05;;;;;;;17.22;61.74;101592.56;4887542;29;20286;-80
2022/06/21 10:35:45;;;;;;;3.53;1.90;;;;;;;17.25;61.05;101591.53;4901469;29;20040;-80
2022/06/21 10:38:36;;;;;;;5.03;1.85;;;;;;;17.27;60.81;101587.84;4884594;29;20370;-80
2022/06/21 10:41:02;;;;;;;7.80;2.55;;;;;;;17.34;61.26;101582.22;4881103;29;20048;-80
2022/06/21 10:43:51;;;;;;;4.00;2.30;;;;;;;17.35;60.43;101582.13;4886439;29;20044;-80
2022/06/21 10:46:26;;;;;;;2.53;1.70;;;;;;;17.38;61.24;101581.09;4887490;29;20378;-81
2022/06/21 10:48:58;;;;;;;2.97;1.58;;;;;;;17.42;62.59;101594.06;4884500;29;20041;-80
2022/06/21 10:51:41;;;;;;;4.78;2.10;;;;;;;17.45;60.87;101593.88;4860381;29;20052;-80
2022/06/21 10:54:28;;;;;;;4.13;2.30;;;;;;;17.49;62.15;101599.03;4879345;29;20472;-81
2022/06/21 10:57:09;;;;;;;5.03;2.20;;;;;;;17.51;62.02;101599.78;4875542;29;20221;-80
2022/06/21 11:02:54;;;;;;;2.83;2.08;;;;;;;17.55;63.21;101594.19;4883846;29;20047;-80
2022/06/21 11:05:34;;;;;;;4.10;2.92;;;;;;;17.56;61.11;101592.44;4880036;29;20201;-80
2022/06/21 11:08:18;;;;;;;5.43;2.50;;;;;;;17.55;61.59;101596.00;4878040;29;20321;-80
2022/06/21 11:10:50;;;;;;;3.38;2.58;;;;;;;17.50;60.20;101593.63;4880792;29;20068;-80
2022/06/21 11:13:18;;;;;;;3.72;2.50;;;;;;;17.49;61.09;101593.72;4875082;29;20273;-80
2022/06/21 11:16:12;;;;;;;10.83;3.60;;;;;;;17.51;61.45;101594.47;4883896;29;20308;-80
2022/06/21 11:18:49;;;;;;;6.63;2.80;;;;;;;17.51;61.07;101586.53;4882429;29;20035;-80
2022/06/21 11:21:45;;;;;;;3.45;2.70;;;;;;;17.51;60.99;101586.53;4881383;29;20037;-80
2022/06/21 11:24:29;;;;;;;5.47;2.55;;;;;;;17.52;62.00;101599.69;4880157;29;20032;-80
2022/06/21 11:27:17;;;;;;;5.30;3.15;;;;;;;17.53;62.16;101595.25;4885775;29;20370;-79
2022/06/21 11:29:49;;;;;;;;;;;;;;;17.55;63.14;101593.34;4880790;29;20348;-80
2022/06/21 11:32:20;;;;;;;5.28;3.15;;;;;;;17.57;61.35;101587.06;4878296;29;20198;-80
2022/06/21 11:35:16;;;;;;;4.32;2.90;;;;;;;17.59;61.51;101594.88;4876989;29;20045;-81
2022/06/21 11:38:02;;;;;;;4.95;2.97;;;;;;;17.59;61.78;101586.94;4878704;29;20101;-80
2022/06/21 11:40:31;;;;;;;10.52;2.70;;;;;;;17.61;61.77;101588.56;4877983;29;20029;-81
2022/06/21 11:42:57;;;;;;;5.55;2.30;;;;;;;17.62;62.36;101590.25;4877650;29;20041;-81
2022/06/21 11:45:45;;;;;;;6.13;2.75;;;;;;;17.64;63.12;101584.88;4889966;29;20549;-81
2022/06/21 11:48:30;;;;;;;5.68;2.92;;;;;;;17.67;63.62;101578.56;4883297;29;20025;-80
2022/06/21 11:51:09;;;;;;;7.75;3.25;;;;;;;17.65;62.40;101568.06;4877544;29;20028;-81
2022/06/21 11:53:59;;;;;;;5.53;3.03;;;;;;;17.63;61.77;101573.44;4866697;29;20335;-80
2022/06/21 11:56:49;;;;;;;6.28;3.75;;;;;;;17.65;61.22;101568.06;4880722;29;20265;-80
2022/06/21 11:59:22;;;;;;;7.35;3.60;;;;;;;17.74;60.98;101564.84;4865918;29;20060;-80
2022/06/21 12:01:56;;;;;;;4.82;3.50;;;;;;;17.77;61.54;101562.03;4886225;29;20209;-81
2022/06/21 12:04:31;;;;;;;4.63;3.38;;;;;;;17.86;61.32;101562.44;4865729;29;20029;-80
2022/06/21 12:07:10;;;;;;;4.80;3.20;;;;;;;17.91;60.46;101563.03;4877974;29;20049;-80
2022/06/21 12:09:45;;;;;;;5.05;3.20;;;;;;;17.92;60.38;101551.47;4881364;29;20316;-80
2022/06/21 12:12:42;;;;;;;5.22;3.30;;;;;;;17.94;60.68;101549.59;4873568;29;20036;-80
2022/06/21 12:15:07;;;;;;;6.85;3.22;;;;;;;17.96;60.86;101556.50;4859404;29;20522;-80
2022/06/21 12:17:51;;;;;;;3.67;2.55;;;;;;;17.98;60.08;101545.81;4884748;29;20041;-80
2022/06/21 12:20:31;;;;;;;5.88;3.25;;;;;;;17.97;59.24;101541.44;4877931;29;20049;-80
2022/06/21 12:23:12;;;;;;;5.18;3.00;;;;;;;17.97;59.64;101541.44;4865716;29;20068;-80
2022/06/21 12:25:38;;;;;;;4.90;2.63;;;;;;;17.99;59.92;101542.19;4886924;29;20563;-80